sensor_id;sensor_type;location;lat;lon;timestamp;pressure;altitude;pressure_sealevel;temperature;humidity
13013;BME280;22580;57.670;12.006;2024-02-26T00:01:35;100311.63;;;12.47;91.61
13013;BME280;22580;57.670;12.006;2024-02-26T00:04:06;100310.50;;;12.50;91.68
13013;BME280;22580;57.670;12.006;2024-02-26T00:06:33;100299.34;;;12.44;91.78
13013;BME280;22580;57.670;12.006;2024-02-26T00:09:02;100311.75;;;12.45;91.57
13013;BME280;22580;57.670;12.006;2024-02-26T00:11:31;100317.38;;;12.42;91.90
13013;BME280;22580;57.670;12.006;2024-02-26T00:13:58;100318.22;;;12.43;91.67
13013;BME280;22580;57.670;12.006;2024-02-26T00:16:25;100320.31;;;12.39;91.84
13013;BME280;22580;57.670;12.006;2024-02-26T00:18:52;100304.50;;;12.36;92.01
13013;BME280;22580;57.670;12.006;2024-02-26T00:21:21;100313.19;;;12.50;92.12
13013;BME280;22580;57.670;12.006;2024-02-26T00:23:49;100323.06;;;12.49;91.59
13013;BME280;22580;57.670;12.006;2024-02-26T00:26:17;100300.59;;;12.40;91.48
13013;BME280;22580;57.670;12.006;2024-02-26T00:28:44;100313.91;;;12.52;91.75
13013;BME280;22580;57.670;12.006;2024-02-26T00:31:11;100316.00;;;12.48;91.98
13013;BME280;22580;57.670;12.006;2024-02-26T00:33:39;100317.44;;;12.52;91.67
13013;BME280;22580;57.670;12.006;2024-02-26T00:36:06;100323.06;;;12.49;91.72
13013;BME280;22580;57.670;12.006;2024-02-26T00:38:35;100325.69;;;12.39;92.21
13013;BME280;22580;57.670;12.006;2024-02-26T00:41:02;100290.91;;;12.28;91.75
13013;BME280;22580;57.670;12.006;2024-02-26T00:43:29;100322.69;;;12.54;91.77
13013;BME280;22580;57.670;12.006;2024-02-26T00:45:58;100326.06;;;12.56;91.81
13013;BME280;22580;57.670;12.006;2024-02-26T00:48:25;100318.56;;;12.50;91.97
13013;BME280;22580;57.670;12.006;2024-02-26T00:50:53;100314.19;;;12.48;91.94
13013;BME280;22580;57.670;12.006;2024-02-26T00:53:28;100310.78;;;12.46;91.86
13013;BME280;22580;57.670;12.006;2024-02-26T00:55:59;100334.19;;;12.65;91.90
13013;BME280;22580;57.670;12.006;2024-02-26T00:58:27;100337.53;;;12.58;91.79
13013;BME280;22580;57.670;12.006;2024-02-26T01:00:54;100333.84;;;12.59;91.67
13013;BME280;22580;57.670;12.006;2024-02-26T01:03:22;100327.31;;;12.52;92.20
13013;BME280;22580;57.670;12.006;2024-02-26T01:05:51;100308.88;;;12.37;92.12
13013;BME280;22580;57.670;12.006;2024-02-26T01:08:17;100333.59;;;12.62;92.39
13013;BME280;22580;57.670;12.006;2024-02-26T01:10:44;100338.81;;;12.63;91.99
13013;BME280;22580;57.670;12.006;2024-02-26T01:13:13;100336.84;;;12.65;92.14
13013;BME280;22580;57.670;12.006;2024-02-26T01:15:41;100336.72;;;12.67;92.17
13013;BME280;22580;57.670;12.006;2024-02-26T01:18:09;100342.09;;;12.67;92.42
13013;BME280;22580;57.670;12.006;2024-02-26T01:20:37;100333.84;;;12.59;92.38
13013;BME280;22580;57.670;12.006;2024-02-26T01:23:04;100337.84;;;12.64;92.18
13013;BME280;22580;57.670;12.006;2024-02-26T01:25:34;100314.63;;;12.54;92.30
13013;BME280;22580;57.670;12.006;2024-02-26T01:28:03;100332.34;;;12.66;92.36
13013;BME280;22580;57.670;12.006;2024-02-26T01:30:32;100324.56;;;12.63;92.43
13013;BME280;22580;57.670;12.006;2024-02-26T01:32:59;100333.72;;;12.60;92.26
13013;BME280;22580;57.670;12.006;2024-02-26T01:35:29;100336.16;;;12.63;92.40
13013;BME280;22580;57.670;12.006;2024-02-26T01:37:56;100339.47;;;12.56;93.00
13013;BME280;22580;57.670;12.006;2024-02-26T01:40:27;100322.34;;;12.47;92.61
13013;BME280;22580;57.670;12.006;2024-02-26T01:42:55;100330.19;;;12.60;92.91
13013;BME280;22580;57.670;12.006;2024-02-26T01:45:22;100341.38;;;12.65;92.36
13013;BME280;22580;57.670;12.006;2024-02-26T01:47:52;100339.66;;;12.64;92.47
13013;BME280;22580;57.670;12.006;2024-02-26T01:50:20;100322.22;;;12.48;92.56
13013;BME280;22580;57.670;12.006;2024-02-26T01:52:50;100340.41;;;12.66;92.65
13013;BME280;22580;57.670;12.006;2024-02-26T01:55:18;100344.06;;;12.65;92.56
13013;BME280;22580;57.670;12.006;2024-02-26T01:57:48;100314.38;;;12.36;92.80
13013;BME280;22580;57.670;12.006;2024-02-26T02:00:18;100342.56;;;12.51;92.61
13013;BME280;22580;57.670;12.006;2024-02-26T02:02:49;100347.00;;;12.62;92.48
13013;BME280;22580;57.670;12.006;2024-02-26T02:05:20;100347.25;;;12.59;92.92
13013;BME280;22580;57.670;12.006;2024-02-26T02:07:47;100356.16;;;12.59;93.03
13013;BME280;22580;57.670;12.006;2024-02-26T02:10:18;100317.66;;;12.39;92.97
13013;BME280;22580;57.670;12.006;2024-02-26T02:12:48;100355.81;;;12.53;93.28
13013;BME280;22580;57.670;12.006;2024-02-26T02:15:15;100329.53;;;12.46;93.17
13013;BME280;22580;57.670;12.006;2024-02-26T02:17:45;100350.22;;;12.56;93.57
13013;BME280;22580;57.670;12.006;2024-02-26T02:20:16;100348.91;;;12.50;93.13
13013;BME280;22580;57.670;12.006;2024-02-26T02:22:45;100354.38;;;12.48;93.32
13013;BME280;22580;57.670;12.006;2024-02-26T02:25:13;100351.84;;;12.47;92.99
13013;BME280;22580;57.670;12.006;2024-02-26T02:27:41;100348.75;;;12.52;93.42
13013;BME280;22580;57.670;12.006;2024-02-26T02:30:11;100355.91;;;12.62;93.05
13013;BME280;22580;57.670;12.006;2024-02-26T02:32:40;100359.22;;;12.55;93.46
13013;BME280;22580;57.670;12.006;2024-02-26T02:35:08;100361.50;;;12.59;93.31
13013;BME280;22580;57.670;12.006;2024-02-26T02:37:35;100372.13;;;12.61;93.10
13013;BME280;22580;57.670;12.006;2024-02-26T02:40:05;100315.63;;;12.32;93.40
13013;BME280;22580;57.670;12.006;2024-02-26T02:42:34;100353.34;;;12.61;93.02
13013;BME280;22580;57.670;12.006;2024-02-26T02:45:05;100362.50;;;12.58;93.29
13013;BME280;22580;57.670;12.006;2024-02-26T02:47:35;100333.06;;;12.47;93.05
13013;BME280;22580;57.670;12.006;2024-02-26T02:50:02;100353.59;;;12.58;93.11
13013;BME280;22580;57.670;12.006;2024-02-26T02:52:32;100375.31;;;12.75;92.91
13013;BME280;22580;57.670;12.006;2024-02-26T02:55:00;100351.19;;;12.55;93.07
13013;BME280;22580;57.670;12.006;2024-02-26T02:57:29;100374.59;;;12.73;93.12
13013;BME280;22580;57.670;12.006;2024-02-26T02:59:57;100374.47;;;12.75;93.01
13013;BME280;22580;57.670;12.006;2024-02-26T03:02:24;100377.28;;;12.73;92.87
13013;BME280;22580;57.670;12.006;2024-02-26T03:04:51;100375.97;;;12.68;93.16
13013;BME280;22580;57.670;12.006;2024-02-26T03:07:18;100362.09;;;12.63;93.28
13013;BME280;22580;57.670;12.006;2024-02-26T03:09:47;100382.63;;;12.73;93.19
13013;BME280;22580;57.670;12.006;2024-02-26T03:12:14;100379.63;;;12.67;93.20
13013;BME280;22580;57.670;12.006;2024-02-26T03:14:43;100362.16;;;12.52;93.38
13013;BME280;22580;57.670;12.006;2024-02-26T03:17:10;100373.22;;;12.58;92.96
13013;BME280;22580;57.670;12.006;2024-02-26T03:19:37;100338.88;;;12.31;93.55
13013;BME280;22580;57.670;12.006;2024-02-26T03:22:05;100381.00;;;12.61;93.73
13013;BME280;22580;57.670;12.006;2024-02-26T03:24:33;100387.81;;;12.65;93.50
13013;BME280;22580;57.670;12.006;2024-02-26T03:27:00;100382.13;;;12.59;93.53
13013;BME280;22580;57.670;12.006;2024-02-26T03:29:27;100390.56;;;12.75;93.50
13013;BME280;22580;57.670;12.006;2024-02-26T03:31:55;100399.31;;;12.77;93.09
13013;BME280;22580;57.670;12.006;2024-02-26T03:34:23;100398.59;;;12.75;93.31
13013;BME280;22580;57.670;12.006;2024-02-26T03:36:52;100386.56;;;12.69;93.00
13013;BME280;22580;57.670;12.006;2024-02-26T03:39:19;100343.53;;;12.50;93.21
13013;BME280;22580;57.670;12.006;2024-02-26T03:41:46;100400.44;;;12.74;92.93
13013;BME280;22580;57.670;12.006;2024-02-26T03:44:13;100408.88;;;12.70;93.46
13013;BME280;22580;57.670;12.006;2024-02-26T03:46:40;100398.16;;;12.70;93.41
13013;BME280;22580;57.670;12.006;2024-02-26T03:49:09;100356.53;;;12.55;92.73
13013;BME280;22580;57.670;12.006;2024-02-26T03:51:37;100413.84;;;12.95;92.65
13013;BME280;22580;57.670;12.006;2024-02-26T03:54:04;100358.25;;;12.56;92.85
13013;BME280;22580;57.670;12.006;2024-02-26T03:56:30;100392.84;;;12.79;92.64
13013;BME280;22580;57.670;12.006;2024-02-26T03:58:57;100403.75;;;12.88;92.20
13013;BME280;22580;57.670;12.006;2024-02-26T04:01:25;100414.44;;;12.78;92.89
13013;BME280;22580;57.670;12.006;2024-02-26T04:03:52;100395.25;;;12.62;92.63
13013;BME280;22580;57.670;12.006;2024-02-26T04:06:22;100416.97;;;12.79;92.55
13013;BME280;22580;57.670;12.006;2024-02-26T04:08:50;100429.88;;;12.86;92.61
13013;BME280;22580;57.670;12.006;2024-02-26T04:11:17;100422.09;;;12.83;92.83
13013;BME280;22580;57.670;12.006;2024-02-26T04:13:44;100425.09;;;12.89;92.79
13013;BME280;22580;57.670;12.006;2024-02-26T04:16:15;100421.44;;;12.90;92.49
13013;BME280;22580;57.670;12.006;2024-02-26T04:18:44;100410.31;;;12.74;92.97
13013;BME280;22580;57.670;12.006;2024-02-26T04:21:11;100433.06;;;12.79;93.40
13013;BME280;22580;57.670;12.006;2024-02-26T04:23:39;100426.28;;;12.75;92.88
13013;BME280;22580;57.670;12.006;2024-02-26T04:26:08;100432.47;;;12.76;92.87
13013;BME280;22580;57.670;12.006;2024-02-26T04:28:35;100430.06;;;12.73;92.95
13013;BME280;22580;57.670;12.006;2024-02-26T04:31:02;100433.06;;;12.79;93.11
13013;BME280;22580;57.670;12.006;2024-02-26T04:33:29;100438.19;;;12.83;93.37
13013;BME280;22580;57.670;12.006;2024-02-26T04:35:56;100413.66;;;12.66;93.62
13013;BME280;22580;57.670;12.006;2024-02-26T04:38:23;100444.84;;;12.88;93.10
13013;BME280;22580;57.670;12.006;2024-02-26T04:40:52;100443.75;;;12.91;93.06
13013;BME280;22580;57.670;12.006;2024-02-26T04:43:21;100440.47;;;12.87;92.86
13013;BME280;22580;57.670;12.006;2024-02-26T04:45:48;100445.97;;;12.86;93.32
13013;BME280;22580;57.670;12.006;2024-02-26T04:48:15;100445.69;;;12.89;93.30
13013;BME280;22580;57.670;12.006;2024-02-26T04:50:43;100448.06;;;12.82;93.37
13013;BME280;22580;57.670;12.006;2024-02-26T04:53:12;100456.63;;;12.76;93.72
13013;BME280;22580;57.670;12.006;2024-02-26T04:55:39;100451.00;;;12.79;93.32
13013;BME280;22580;57.670;12.006;2024-02-26T04:58:08;100452.91;;;12.88;93.06
13013;BME280;22580;57.670;12.006;2024-02-26T05:00:35;100452.06;;;12.88;92.80
13013;BME280;22580;57.670;12.006;2024-02-26T05:03:04;100453.41;;;12.82;92.93
13013;BME280;22580;57.670;12.006;2024-02-26T05:05:30;100461.22;;;12.85;92.99
13013;BME280;22580;57.670;12.006;2024-02-26T05:07:58;100458.78;;;12.82;92.81
13013;BME280;22580;57.670;12.006;2024-02-26T05:10:25;100459.56;;;12.73;93.12
13013;BME280;22580;57.670;12.006;2024-02-26T05:12:52;100466.84;;;12.82;92.98
13013;BME280;22580;57.670;12.006;2024-02-26T05:15:20;100467.69;;;12.83;92.87
13013;BME280;22580;57.670;12.006;2024-02-26T05:17:47;100457.84;;;12.72;93.24
13013;BME280;22580;57.670;12.006;2024-02-26T05:20:14;100473.31;;;12.79;93.38
13013;BME280;22580;57.670;12.006;2024-02-26T05:22:42;100478.41;;;12.83;93.39
13013;BME280;22580;57.670;12.006;2024-02-26T05:25:09;100484.63;;;12.83;93.05
13013;BME280;22580;57.670;12.006;2024-02-26T05:27:36;100485.34;;;12.85;93.00
13013;BME280;22580;57.670;12.006;2024-02-26T05:30:05;100484.97;;;12.90;92.75
13013;BME280;22580;57.670;12.006;2024-02-26T05:32:34;100492.69;;;12.83;92.90
13013;BME280;22580;57.670;12.006;2024-02-26T05:35:01;100493.06;;;12.78;92.79
13013;BME280;22580;57.670;12.006;2024-02-26T05:37:29;100491.81;;;12.83;92.89
13013;BME280;22580;57.670;12.006;2024-02-26T05:39:57;100495.88;;;12.77;92.81
13013;BME280;22580;57.670;12.006;2024-02-26T05:42:24;100498.31;;;12.80;92.88
13013;BME280;22580;57.670;12.006;2024-02-26T05:44:51;100502.47;;;12.73;92.73
13013;BME280;22580;57.670;12.006;2024-02-26T05:47:21;100495.16;;;12.75;92.58
13013;BME280;22580;57.670;12.006;2024-02-26T05:49:49;100520.72;;;12.79;92.60
13013;BME280;22580;57.670;12.006;2024-02-26T05:52:17;100497.75;;;12.65;92.90
13013;BME280;22580;57.670;12.006;2024-02-26T05:54:43;100526.69;;;12.83;93.09
13013;BME280;22580;57.670;12.006;2024-02-26T05:57:11;100497.53;;;12.57;92.84
13013;BME280;22580;57.670;12.006;2024-02-26T05:59:38;100515.94;;;12.62;92.82
13013;BME280;22580;57.670;12.006;2024-02-26T06:02:05;100542.19;;;12.79;92.67
13013;BME280;22580;57.670;12.006;2024-02-26T06:04:32;100528.44;;;12.72;92.97
13013;BME280;22580;57.670;12.006;2024-02-26T06:07:01;100549.50;;;12.77;93.28
13013;BME280;22580;57.670;12.006;2024-02-26T06:09:28;100551.09;;;12.79;93.04
13013;BME280;22580;57.670;12.006;2024-02-26T06:11:57;100557.44;;;12.78;92.81
13013;BME280;22580;57.670;12.006;2024-02-26T06:14:24;100565.00;;;12.73;93.14
13013;BME280;22580;57.670;12.006;2024-02-26T06:16:52;100572.69;;;12.78;92.95
13013;BME280;22580;57.670;12.006;2024-02-26T06:19:19;100559.78;;;12.72;93.26
13013;BME280;22580;57.670;12.006;2024-02-26T06:21:46;100576.22;;;12.78;93.28
13013;BME280;22580;57.670;12.006;2024-02-26T06:24:14;100584.97;;;12.80;93.69
13013;BME280;22580;57.670;12.006;2024-02-26T06:26:42;100582.03;;;12.84;93.03
13013;BME280;22580;57.670;12.006;2024-02-26T06:29:11;100571.22;;;12.74;92.96
13013;BME280;22580;57.670;12.006;2024-02-26T06:31:37;100584.38;;;12.77;92.89
13013;BME280;22580;57.670;12.006;2024-02-26T06:34:04;100561.03;;;12.57;92.91
13013;BME280;22580;57.670;12.006;2024-02-26T06:36:31;100575.91;;;12.61;93.04
13013;BME280;22580;57.670;12.006;2024-02-26T06:38:58;100594.25;;;12.76;93.16
13013;BME280;22580;57.670;12.006;2024-02-26T06:41:29;100590.72;;;12.76;93.12
13013;BME280;22580;57.670;12.006;2024-02-26T06:43:56;100601.19;;;12.79;92.99
13013;BME280;22580;57.670;12.006;2024-02-26T06:46:23;100600.34;;;12.78;93.04
13013;BME280;22580;57.670;12.006;2024-02-26T06:48:51;100571.00;;;12.66;93.20
13013;BME280;22580;57.670;12.006;2024-02-26T06:51:18;100606.91;;;12.86;93.09
13013;BME280;22580;57.670;12.006;2024-02-26T06:53:45;100595.97;;;12.77;93.01
13013;BME280;22580;57.670;12.006;2024-02-26T06:56:51;100613.00;;;12.88;93.01
13013;BME280;22580;57.670;12.006;2024-02-26T06:59:18;100572.63;;;12.57;93.07
13013;BME280;22580;57.670;12.006;2024-02-26T07:01:46;100609.13;;;12.80;93.39
13013;BME280;22580;57.670;12.006;2024-02-26T07:04:13;100620.81;;;12.91;93.10
13013;BME280;22580;57.670;12.006;2024-02-26T07:06:40;100575.53;;;12.65;93.01
13013;BME280;22580;57.670;12.006;2024-02-26T07:09:07;100607.28;;;12.81;92.95
13013;BME280;22580;57.670;12.006;2024-02-26T07:11:33;100626.03;;;12.92;93.22
13013;BME280;22580;57.670;12.006;2024-02-26T07:14:02;100623.47;;;12.91;95.01
13013;BME280;22580;57.670;12.006;2024-02-26T07:16:29;100624.81;;;12.96;93.94
13013;BME280;22580;57.670;12.006;2024-02-26T07:18:56;100615.38;;;13.02;93.65
13013;BME280;22580;57.670;12.006;2024-02-26T07:21:25;100624.25;;;13.02;93.53
13013;BME280;22580;57.670;12.006;2024-02-26T07:23:52;100626.09;;;13.02;93.27
13013;BME280;22580;57.670;12.006;2024-02-26T07:26:19;100627.81;;;13.03;93.62
13013;BME280;22580;57.670;12.006;2024-02-26T07:28:46;100633.75;;;13.06;93.04
13013;BME280;22580;57.670;12.006;2024-02-26T07:31:14;100635.47;;;13.07;92.94
13013;BME280;22580;57.670;12.006;2024-02-26T07:33:41;100621.16;;;12.97;92.97
13013;BME280;22580;57.670;12.006;2024-02-26T07:36:08;100641.31;;;13.12;93.14
13013;BME280;22580;57.670;12.006;2024-02-26T07:38:35;100651.56;;;13.19;93.02
13013;BME280;22580;57.670;12.006;2024-02-26T07:41:02;100652.28;;;13.21;92.91
13013;BME280;22580;57.670;12.006;2024-02-26T07:43:29;100658.25;;;13.24;92.99
13013;BME280;22580;57.670;12.006;2024-02-26T07:45:57;100656.28;;;13.26;93.16
13013;BME280;22580;57.670;12.006;2024-02-26T07:48:26;100657.88;;;13.29;93.29
13013;BME280;22580;57.670;12.006;2024-02-26T07:50:53;100669.06;;;13.34;93.21
13013;BME280;22580;57.670;12.006;2024-02-26T07:53:20;100665.41;;;13.35;93.44
13013;BME280;22580;57.670;12.006;2024-02-26T07:55:47;100674.19;;;13.37;92.82
13013;BME280;22580;57.670;12.006;2024-02-26T07:58:13;100675.69;;;13.30;92.98
13013;BME280;22580;57.670;12.006;2024-02-26T08:00:40;100683.38;;;13.23;92.99
13013;BME280;22580;57.670;12.006;2024-02-26T08:03:07;100692.03;;;13.16;93.18
13013;BME280;22580;57.670;12.006;2024-02-26T08:05:36;100691.69;;;13.09;92.96
13013;BME280;22580;57.670;12.006;2024-02-26T08:08:23;100699.03;;;13.07;92.79
13013;BME280;22580;57.670;12.006;2024-02-26T08:10:49;100670.19;;;12.88;92.77
13013;BME280;22580;57.670;12.006;2024-02-26T08:13:16;100704.38;;;13.07;93.18
13013;BME280;22580;57.670;12.006;2024-02-26T08:15:44;100706.69;;;13.11;93.15
13013;BME280;22580;57.670;12.006;2024-02-26T08:18:11;100695.31;;;13.30;92.92
13013;BME280;22580;57.670;12.006;2024-02-26T08:20:40;100702.50;;;13.41;92.57
13013;BME280;22580;57.670;12.006;2024-02-26T08:23:08;100679.13;;;13.21;91.99
13013;BME280;22580;57.670;12.006;2024-02-26T08:25:37;100712.03;;;13.34;92.27
13013;BME280;22580;57.670;12.006;2024-02-26T08:28:04;100693.53;;;13.20;92.45
13013;BME280;22580;57.670;12.006;2024-02-26T08:30:31;100703.50;;;13.29;92.07
13013;BME280;22580;57.670;12.006;2024-02-26T08:33:01;100724.00;;;13.30;91.81
13013;BME280;22580;57.670;12.006;2024-02-26T08:35:28;100730.19;;;12.87;92.93
13013;BME280;22580;57.670;12.006;2024-02-26T08:37:56;100730.38;;;13.06;92.91
13013;BME280;22580;57.670;12.006;2024-02-26T08:40:24;100734.50;;;13.33;92.26
13013;BME280;22580;57.670;12.006;2024-02-26T08:42:51;100736.16;;;13.45;92.11
13013;BME280;22580;57.670;12.006;2024-02-26T08:45:18;100713.88;;;13.33;91.84
13013;BME280;22580;57.670;12.006;2024-02-26T08:47:45;100725.28;;;13.47;92.03
13013;BME280;22580;57.670;12.006;2024-02-26T08:50:13;100748.44;;;13.59;91.70
13013;BME280;22580;57.670;12.006;2024-02-26T08:52:41;100736.47;;;13.63;91.80
13013;BME280;22580;57.670;12.006;2024-02-26T08:55:09;100695.53;;;13.38;91.77
13013;BME280;22580;57.670;12.006;2024-02-26T08:57:36;100744.13;;;13.67;91.42
13013;BME280;22580;57.670;12.006;2024-02-26T09:00:05;100745.31;;;13.74;91.80
13013;BME280;22580;57.670;12.006;2024-02-26T09:02:32;100751.03;;;13.81;91.50
13013;BME280;22580;57.670;12.006;2024-02-26T09:05:04;100748.41;;;13.70;91.47
13013;BME280;22580;57.670;12.006;2024-02-26T09:07:31;100752.28;;;13.77;91.89
13013;BME280;22580;57.670;12.006;2024-02-26T09:09:59;100745.56;;;13.71;91.61
13013;BME280;22580;57.670;12.006;2024-02-26T09:12:27;100764.44;;;13.60;91.65
13013;BME280;22580;57.670;12.006;2024-02-26T09:14:54;100765.38;;;13.70;90.94
13013;BME280;22580;57.670;12.006;2024-02-26T09:17:24;100758.97;;;13.83;91.33
13013;BME280;22580;57.670;12.006;2024-02-26T09:19:51;100744.94;;;13.79;91.41
13013;BME280;22580;57.670;12.006;2024-02-26T09:22:18;100742.16;;;13.90;91.60
13013;BME280;22580;57.670;12.006;2024-02-26T09:24:45;100720.88;;;13.77;91.20
13013;BME280;22580;57.670;12.006;2024-02-26T09:27:11;100774.28;;;14.13;91.14
13013;BME280;22580;57.670;12.006;2024-02-26T09:29:40;100759.28;;;14.10;91.32
13013;BME280;22580;57.670;12.006;2024-02-26T09:32:07;100771.47;;;14.14;91.07
13013;BME280;22580;57.670;12.006;2024-02-26T09:34:34;100743.22;;;13.78;90.48
13013;BME280;22580;57.670;12.006;2024-02-26T09:37:02;100772.44;;;13.92;90.93
13013;BME280;22580;57.670;12.006;2024-02-26T09:39:29;100783.84;;;14.05;90.76
13013;BME280;22580;57.670;12.006;2024-02-26T09:41:56;100742.88;;;13.92;90.30
13013;BME280;22580;57.670;12.006;2024-02-26T09:44:25;100785.25;;;14.21;90.09
13013;BME280;22580;57.670;12.006;2024-02-26T09:46:57;100792.31;;;14.22;90.02
13013;BME280;22580;57.670;12.006;2024-02-26T09:49:24;100788.25;;;14.27;89.86
13013;BME280;22580;57.670;12.006;2024-02-26T09:51:56;100744.59;;;13.93;89.82
13013;BME280;22580;57.670;12.006;2024-02-26T09:54:25;100797.38;;;14.36;89.54
13013;BME280;22580;57.670;12.006;2024-02-26T09:56:57;100800.16;;;14.46;88.97
13013;BME280;22580;57.670;12.006;2024-02-26T09:59:26;100748.84;;;14.17;88.90
13013;BME280;22580;57.670;12.006;2024-02-26T10:01:54;100786.72;;;14.46;89.48
13013;BME280;22580;57.670;12.006;2024-02-26T10:04:22;100791.72;;;14.39;89.04
13013;BME280;22580;57.670;12.006;2024-02-26T10:06:51;100804.47;;;14.58;89.26
13013;BME280;22580;57.670;12.006;2024-02-26T10:09:19;100816.84;;;14.28;87.81
13013;BME280;22580;57.670;12.006;2024-02-26T10:11:47;100810.69;;;14.37;87.41
13013;BME280;22580;57.670;12.006;2024-02-26T10:14:16;100816.84;;;14.28;86.44
13013;BME280;22580;57.670;12.006;2024-02-26T10:16:43;100822.03;;;14.20;86.18
13013;BME280;22580;57.670;12.006;2024-02-26T10:19:26;100822.78;;;14.43;86.68
13013;BME280;22580;57.670;12.006;2024-02-26T10:21:56;100822.19;;;14.60;87.16
13013;BME280;22580;57.670;12.006;2024-02-26T10:24:24;100821.97;;;14.73;87.05
13013;BME280;22580;57.670;12.006;2024-02-26T10:26:52;100824.38;;;14.76;86.67
13013;BME280;22580;57.670;12.006;2024-02-26T10:29:19;100834.59;;;14.82;86.84
13013;BME280;22580;57.670;12.006;2024-02-26T10:31:46;100823.25;;;14.79;86.20
13013;BME280;22580;57.670;12.006;2024-02-26T10:34:16;100802.72;;;14.47;86.42
13013;BME280;22580;57.670;12.006;2024-02-26T10:36:45;100832.03;;;14.71;86.20
13013;BME280;22580;57.670;12.006;2024-02-26T10:39:13;100833.47;;;14.54;85.08
13013;BME280;22580;57.670;12.006;2024-02-26T10:41:40;100837.81;;;14.76;85.50
13013;BME280;22580;57.670;12.006;2024-02-26T10:44:08;100826.41;;;14.53;85.11
13013;BME280;22580;57.670;12.006;2024-02-26T10:46:36;100833.28;;;14.67;85.53
13013;BME280;22580;57.670;12.006;2024-02-26T10:49:04;100829.47;;;14.49;85.13
13013;BME280;22580;57.670;12.006;2024-02-26T10:51:36;100834.84;;;14.49;84.92
13013;BME280;22580;57.670;12.006;2024-02-26T10:54:06;100813.78;;;14.33;85.07
13013;BME280;22580;57.670;12.006;2024-02-26T10:56:36;100844.50;;;14.51;85.11
13013;BME280;22580;57.670;12.006;2024-02-26T10:59:07;100828.91;;;14.13;85.71
13013;BME280;22580;57.670;12.006;2024-02-26T11:01:35;100847.44;;;14.69;85.61
13013;BME280;22580;57.670;12.006;2024-02-26T11:04:04;100815.03;;;14.70;85.72
13013;BME280;22580;57.670;12.006;2024-02-26T11:06:31;100847.84;;;14.64;85.59
13013;BME280;22580;57.670;12.006;2024-02-26T11:09:01;100839.97;;;14.82;85.24
13013;BME280;22580;57.670;12.006;2024-02-26T11:11:32;100843.88;;;14.99;86.27
13013;BME280;22580;57.670;12.006;2024-02-26T11:14:03;100849.53;;;14.96;85.14
13013;BME280;22580;57.670;12.006;2024-02-26T11:16:40;100845.97;;;14.23;84.90
13013;BME280;22580;57.670;12.006;2024-02-26T11:19:09;100845.72;;;14.26;85.27
13013;BME280;22580;57.670;12.006;2024-02-26T11:21:36;100856.78;;;14.44;85.79
13013;BME280;22580;57.670;12.006;2024-02-26T11:24:10;100806.50;;;14.24;87.01
13013;BME280;22580;57.670;12.006;2024-02-26T11:26:43;100866.28;;;14.99;84.75
13013;BME280;22580;57.670;12.006;2024-02-26T11:29:21;100862.06;;;15.06;85.01
13013;BME280;22580;57.670;12.006;2024-02-26T11:31:50;100787.56;;;14.46;83.54
13013;BME280;22580;57.670;12.006;2024-02-26T11:34:18;100814.06;;;14.81;83.24
13013;BME280;22580;57.670;12.006;2024-02-26T11:36:46;100864.00;;;14.95;83.62
13013;BME280;22580;57.670;12.006;2024-02-26T11:39:15;100863.97;;;15.25;83.70
13013;BME280;22580;57.670;12.006;2024-02-26T11:41:43;100870.50;;;15.23;84.46
13013;BME280;22580;57.670;12.006;2024-02-26T11:44:10;100834.16;;;15.07;84.19
13013;BME280;22580;57.670;12.006;2024-02-26T11:46:40;100872.16;;;15.14;84.08
13013;BME280;22580;57.670;12.006;2024-02-26T11:49:32;100872.78;;;14.97;85.56
13013;BME280;22580;57.670;12.006;2024-02-26T11:51:59;100834.72;;;14.71;85.33
13013;BME280;22580;57.670;12.006;2024-02-26T11:54:45;100878.72;;;15.21;86.26
13013;BME280;22580;57.670;12.006;2024-02-26T11:57:24;100862.69;;;15.20;84.61
13013;BME280;22580;57.670;12.006;2024-02-26T11:59:53;100875.56;;;15.16;84.19
13013;BME280;22580;57.670;12.006;2024-02-26T12:02:38;100874.97;;;15.13;83.72
13013;BME280;22580;57.670;12.006;2024-02-26T12:05:06;100889.66;;;14.68;83.33
13013;BME280;22580;57.670;12.006;2024-02-26T12:07:37;100853.63;;;14.60;83.67
13013;BME280;22580;57.670;12.006;2024-02-26T12:10:16;100866.22;;;14.90;83.26
13013;BME280;22580;57.670;12.006;2024-02-26T12:12:45;100844.44;;;14.41;83.04
13013;BME280;22580;57.670;12.006;2024-02-26T12:15:15;100878.91;;;14.36;83.18
13013;BME280;22580;57.670;12.006;2024-02-26T12:17:48;100880.88;;;14.34;83.47
13013;BME280;22580;57.670;12.006;2024-02-26T12:20:17;100904.53;;;14.20;83.04
13013;BME280;22580;57.670;12.006;2024-02-26T12:22:46;100891.25;;;14.07;83.69
13013;BME280;22580;57.670;12.006;2024-02-26T12:25:16;100906.41;;;13.54;85.73
13013;BME280;22580;57.670;12.006;2024-02-26T12:27:44;100908.00;;;13.45;86.01
13013;BME280;22580;57.670;12.006;2024-02-26T12:30:12;100897.41;;;13.43;86.05
13013;BME280;22580;57.670;12.006;2024-02-26T12:32:39;100906.00;;;13.81;85.63
13013;BME280;22580;57.670;12.006;2024-02-26T12:35:07;100923.84;;;13.70;84.67
13013;BME280;22580;57.670;12.006;2024-02-26T12:37:35;100920.09;;;13.51;85.42
13013;BME280;22580;57.670;12.006;2024-02-26T12:40:05;100924.69;;;14.14;84.29
13013;BME280;22580;57.670;12.006;2024-02-26T12:42:34;100924.69;;;14.14;84.25
13013;BME280;22580;57.670;12.006;2024-02-26T12:45:07;100929.34;;;13.80;83.87
13013;BME280;22580;57.670;12.006;2024-02-26T12:47:36;100890.53;;;13.73;83.79